sensor_id;sensor_type;location;lat;lon;timestamp;temperature;humidity
46676;DHT22;32412;51.478;5.694;2024-02-28T00:00:38;0.80;99.90
46676;DHT22;32412;51.478;5.694;2024-02-28T00:03:04;0.80;99.90
46676;DHT22;32412;51.478;5.694;2024-02-28T00:05:31;0.70;99.90
46676;DHT22;32412;51.478;5.694;2024-02-28T00:07:57;0.70;99.90
46676;DHT22;32412;51.478;5.694;2024-02-28T00:10:23;0.80;99.90
46676;DHT22;32412;51.478;5.694;2024-02-28T00:12:49;0.70;99.90
46676;DHT22;32412;51.478;5.694;2024-02-28T00:15:14;0.70;99.90
46676;DHT22;32412;51.478;5.694;2024-02-28T00:17:41;0.70;99.90
46676;DHT22;32412;51.478;5.694;2024-02-28T00:20:08;0.70;99.90
46676;DHT22;32412;51.478;5.694;2024-02-28T00:22:35;0.70;99.90
46676;DHT22;32412;51.478;5.694;2024-02-28T00:25:01;0.60;99.90
46676;DHT22;32412;51.478;5.694;2024-02-28T00:27:27;0.60;99.90
46676;DHT22;32412;51.478;5.694;2024-02-28T00:29:52;0.60;99.90
46676;DHT22;32412;51.478;5.694;2024-02-28T00:32:18;0.60;99.90
46676;DHT22;32412;51.478;5.694;2024-02-28T00:34:44;0.50;99.90
46676;DHT22;32412;51.478;5.694;2024-02-28T00:37:09;0.60;99.90
46676;DHT22;32412;51.478;5.694;2024-02-28T00:39:35;0.60;99.90
46676;DHT22;32412;51.478;5.694;2024-02-28T00:42:01;0.60;99.90
46676;DHT22;32412;51.478;5.694;2024-02-28T00:44:26;0.60;99.90
46676;DHT22;32412;51.478;5.694;2024-02-28T00:46:52;0.70;99.90
46676;DHT22;32412;51.478;5.694;2024-02-28T00:49:17;0.80;99.90
46676;DHT22;32412;51.478;5.694;2024-02-28T00:51:43;0.90;99.90
46676;DHT22;32412;51.478;5.694;2024-02-28T00:54:09;0.90;99.90
46676;DHT22;32412;51.478;5.694;2024-02-28T00:56:34;1.00;99.90
46676;DHT22;32412;51.478;5.694;2024-02-28T00:59:00;1.10;99.90
46676;DHT22;32412;51.478;5.694;2024-02-28T01:01:26;1.20;99.90
46676;DHT22;32412;51.478;5.694;2024-02-28T01:03:52;1.20;99.90
46676;DHT22;32412;51.478;5.694;2024-02-28T01:06:17;1.30;99.90
46676;DHT22;32412;51.478;5.694;2024-02-28T01:08:43;1.40;99.90
46676;DHT22;32412;51.478;5.694;2024-02-28T01:11:09;1.40;99.90
46676;DHT22;32412;51.478;5.694;2024-02-28T01:13:35;1.40;99.90
46676;DHT22;32412;51.478;5.694;2024-02-28T01:16:00;1.40;99.90
46676;DHT22;32412;51.478;5.694;2024-02-28T01:18:26;1.30;99.90
46676;DHT22;32412;51.478;5.694;2024-02-28T01:20:56;1.30;99.90
46676;DHT22;32412;51.478;5.694;2024-02-28T01:23:21;1.20;99.90
46676;DHT22;32412;51.478;5.694;2024-02-28T01:25:47;1.20;99.90
46676;DHT22;32412;51.478;5.694;2024-02-28T01:28:13;1.10;99.90
46676;DHT22;32412;51.478;5.694;2024-02-28T01:30:38;1.00;99.90
46676;DHT22;32412;51.478;5.694;2024-02-28T01:33:04;0.90;99.90
46676;DHT22;32412;51.478;5.694;2024-02-28T01:35:30;0.90;99.90
46676;DHT22;32412;51.478;5.694;2024-02-28T01:37:55;0.90;99.90
46676;DHT22;32412;51.478;5.694;2024-02-28T01:40:22;0.80;99.90
46676;DHT22;32412;51.478;5.694;2024-02-28T01:42:47;0.80;99.90
46676;DHT22;32412;51.478;5.694;2024-02-28T01:45:14;0.90;99.90
46676;DHT22;32412;51.478;5.694;2024-02-28T01:47:43;0.80;99.90
46676;DHT22;32412;51.478;5.694;2024-02-28T01:50:12;0.80;99.90
46676;DHT22;32412;51.478;5.694;2024-02-28T01:52:39;0.80;99.90
46676;DHT22;32412;51.478;5.694;2024-02-28T01:55:06;0.80;99.90
46676;DHT22;32412;51.478;5.694;2024-02-28T01:57:32;0.80;99.90
46676;DHT22;32412;51.478;5.694;2024-02-28T01:59:59;0.70;99.90
46676;DHT22;32412;51.478;5.694;2024-02-28T02:02:25;0.60;99.90
46676;DHT22;32412;51.478;5.694;2024-02-28T02:04:50;0.60;99.90
46676;DHT22;32412;51.478;5.694;2024-02-28T02:07:19;0.50;99.90
46676;DHT22;32412;51.478;5.694;2024-02-28T02:09:45;0.50;99.90
46676;DHT22;32412;51.478;5.694;2024-02-28T02:12:11;0.40;99.90
46676;DHT22;32412;51.478;5.694;2024-02-28T02:14:37;0.40;99.90
46676;DHT22;32412;51.478;5.694;2024-02-28T02:17:03;0.30;99.90
46676;DHT22;32412;51.478;5.694;2024-02-28T02:19:29;0.30;99.90
46676;DHT22;32412;51.478;5.694;2024-02-28T02:21:58;0.20;99.90
46676;DHT22;32412;51.478;5.694;2024-02-28T02:24:23;0.20;99.90
46676;DHT22;32412;51.478;5.694;2024-02-28T02:26:49;0.20;99.90
46676;DHT22;32412;51.478;5.694;2024-02-28T02:29:17;0.20;99.90
46676;DHT22;32412;51.478;5.694;2024-02-28T02:31:43;0.10;99.90
46676;DHT22;32412;51.478;5.694;2024-02-28T02:34:08;0.10;99.90
46676;DHT22;32412;51.478;5.694;2024-02-28T02:36:34;0.20;99.90
46676;DHT22;32412;51.478;5.694;2024-02-28T02:39:00;0.20;99.90
46676;DHT22;32412;51.478;5.694;2024-02-28T02:41:25;0.20;99.90
46676;DHT22;32412;51.478;5.694;2024-02-28T02:43:51;0.30;99.90
46676;DHT22;32412;51.478;5.694;2024-02-28T02:46:17;0.30;99.90
46676;DHT22;32412;51.478;5.694;2024-02-28T02:48:43;0.30;99.90
46676;DHT22;32412;51.478;5.694;2024-02-28T02:51:09;0.50;99.90
46676;DHT22;32412;51.478;5.694;2024-02-28T02:53:34;0.40;99.90
46676;DHT22;32412;51.478;5.694;2024-02-28T02:56:03;0.50;99.90
46676;DHT22;32412;51.478;5.694;2024-02-28T02:58:28;0.50;99.90
46676;DHT22;32412;51.478;5.694;2024-02-28T03:00:54;0.50;99.90
46676;DHT22;32412;51.478;5.694;2024-02-28T03:03:20;0.50;99.90
46676;DHT22;32412;51.478;5.694;2024-02-28T03:05:45;0.50;99.90
46676;DHT22;32412;51.478;5.694;2024-02-28T03:08:11;0.50;99.90
46676;DHT22;32412;51.478;5.694;2024-02-28T03:10:37;0.50;99.90
46676;DHT22;32412;51.478;5.694;2024-02-28T03:13:03;0.50;99.90
46676;DHT22;32412;51.478;5.694;2024-02-28T03:15:28;0.50;99.90
46676;DHT22;32412;51.478;5.694;2024-02-28T03:17:54;0.50;99.90
46676;DHT22;32412;51.478;5.694;2024-02-28T03:20:20;0.50;99.90
46676;DHT22;32412;51.478;5.694;2024-02-28T03:22:46;0.40;99.90
46676;DHT22;32412;51.478;5.694;2024-02-28T03:25:12;0.40;99.90
46676;DHT22;32412;51.478;5.694;2024-02-28T03:27:38;0.40;99.90
46676;DHT22;32412;51.478;5.694;2024-02-28T03:30:04;0.40;99.90
46676;DHT22;32412;51.478;5.694;2024-02-28T03:32:31;0.40;99.90
46676;DHT22;32412;51.478;5.694;2024-02-28T03:34:56;0.40;99.90
46676;DHT22;32412;51.478;5.694;2024-02-28T03:37:22;0.40;99.90
46676;DHT22;32412;51.478;5.694;2024-02-28T03:39:48;0.40;99.90
46676;DHT22;32412;51.478;5.694;2024-02-28T03:42:13;0.40;99.90
46676;DHT22;32412;51.478;5.694;2024-02-28T03:44:39;0.50;99.90
46676;DHT22;32412;51.478;5.694;2024-02-28T03:47:08;0.50;99.90
46676;DHT22;32412;51.478;5.694;2024-02-28T03:49:34;0.50;99.90
46676;DHT22;32412;51.478;5.694;2024-02-28T03:52:00;0.50;99.90
46676;DHT22;32412;51.478;5.694;2024-02-28T03:54:26;0.40;99.90
46676;DHT22;32412;51.478;5.694;2024-02-28T03:56:52;0.40;99.90
46676;DHT22;32412;51.478;5.694;2024-02-28T03:59:18;0.40;99.90
46676;DHT22;32412;51.478;5.694;2024-02-28T04:01:44;0.40;99.90
46676;DHT22;32412;51.478;5.694;2024-02-28T04:04:10;0.40;99.90
46676;DHT22;32412;51.478;5.694;2024-02-28T04:06:35;0.50;99.90
46676;DHT22;32412;51.478;5.694;2024-02-28T04:09:01;0.50;99.90
46676;DHT22;32412;51.478;5.694;2024-02-28T04:11:29;0.50;99.90
46676;DHT22;32412;51.478;5.694;2024-02-28T04:13:55;0.50;99.90
46676;DHT22;32412;51.478;5.694;2024-02-28T04:16:20;0.40;99.90
46676;DHT22;32412;51.478;5.694;2024-02-28T04:18:46;0.50;99.90
46676;DHT22;32412;51.478;5.694;2024-02-28T04:21:15;0.50;99.90
46676;DHT22;32412;51.478;5.694;2024-02-28T04:23:41;0.40;99.90
46676;DHT22;32412;51.478;5.694;2024-02-28T04:26:07;0.40;99.90
46676;DHT22;32412;51.478;5.694;2024-02-28T04:28:33;0.40;99.90
46676;DHT22;32412;51.478;5.694;2024-02-28T04:30:59;0.30;99.90
46676;DHT22;32412;51.478;5.694;2024-02-28T04:33:25;0.40;99.90
46676;DHT22;32412;51.478;5.694;2024-02-28T04:35:51;0.40;99.90
46676;DHT22;32412;51.478;5.694;2024-02-28T04:38:16;0.30;99.90
46676;DHT22;32412;51.478;5.694;2024-02-28T04:40:42;0.40;99.90
46676;DHT22;32412;51.478;5.694;2024-02-28T04:43:08;0.40;99.90
46676;DHT22;32412;51.478;5.694;2024-02-28T04:45:34;0.40;99.90
46676;DHT22;32412;51.478;5.694;2024-02-28T04:48:02;0.50;99.90
46676;DHT22;32412;51.478;5.694;2024-02-28T04:50:28;0.40;99.90
46676;DHT22;32412;51.478;5.694;2024-02-28T04:52:54;0.40;99.90
46676;DHT22;32412;51.478;5.694;2024-02-28T04:55:21;0.40;99.90
46676;DHT22;32412;51.478;5.694;2024-02-28T04:57:46;0.50;99.90
46676;DHT22;32412;51.478;5.694;2024-02-28T05:00:12;0.50;99.90
46676;DHT22;32412;51.478;5.694;2024-02-28T05:02:38;0.50;99.90
46676;DHT22;32412;51.478;5.694;2024-02-28T05:05:04;0.40;99.90
46676;DHT22;32412;51.478;5.694;2024-02-28T05:07:30;0.50;99.90
46676;DHT22;32412;51.478;5.694;2024-02-28T05:09:56;0.50;99.90
46676;DHT22;32412;51.478;5.694;2024-02-28T05:12:21;0.50;99.90
46676;DHT22;32412;51.478;5.694;2024-02-28T05:14:47;0.50;99.90
46676;DHT22;32412;51.478;5.694;2024-02-28T05:17:13;0.50;99.90
46676;DHT22;32412;51.478;5.694;2024-02-28T05:19:39;0.50;99.90
46676;DHT22;32412;51.478;5.694;2024-02-28T05:22:08;0.60;99.90
46676;DHT22;32412;51.478;5.694;2024-02-28T05:24:34;0.50;99.90
46676;DHT22;32412;51.478;5.694;2024-02-28T05:27:00;0.50;99.90
46676;DHT22;32412;51.478;5.694;2024-02-28T05:29:29;0.50;99.90
46676;DHT22;32412;51.478;5.694;2024-02-28T05:31:55;0.50;99.90
46676;DHT22;32412;51.478;5.694;2024-02-28T05:34:21;0.50;99.90
46676;DHT22;32412;51.478;5.694;2024-02-28T05:36:47;0.50;99.90
46676;DHT22;32412;51.478;5.694;2024-02-28T05:39:14;0.50;99.90
46676;DHT22;32412;51.478;5.694;2024-02-28T05:41:40;0.50;99.90
46676;DHT22;32412;51.478;5.694;2024-02-28T05:44:06;0.50;99.90
46676;DHT22;32412;51.478;5.694;2024-02-28T05:46:31;0.60;99.90
46676;DHT22;32412;51.478;5.694;2024-02-28T05:48:57;0.50;99.90
46676;DHT22;32412;51.478;5.694;2024-02-28T05:51:24;0.40;99.90
46676;DHT22;32412;51.478;5.694;2024-02-28T05:53:50;0.40;99.90
46676;DHT22;32412;51.478;5.694;2024-02-28T05:56:16;0.40;99.90
46676;DHT22;32412;51.478;5.694;2024-02-28T05:58:45;0.50;99.90
46676;DHT22;32412;51.478;5.694;2024-02-28T06:01:12;0.50;99.90
46676;DHT22;32412;51.478;5.694;2024-02-28T06:03:38;0.40;99.90
46676;DHT22;32412;51.478;5.694;2024-02-28T06:06:04;0.50;99.90
46676;DHT22;32412;51.478;5.694;2024-02-28T06:08:33;0.50;99.90
46676;DHT22;32412;51.478;5.694;2024-02-28T06:10:59;0.60;99.90
46676;DHT22;32412;51.478;5.694;2024-02-28T06:13:26;0.70;99.90
46676;DHT22;32412;51.478;5.694;2024-02-28T06:15:52;0.70;99.90
46676;DHT22;32412;51.478;5.694;2024-02-28T06:18:18;0.80;99.90
46676;DHT22;32412;51.478;5.694;2024-02-28T06:20:43;0.90;99.90
46676;DHT22;32412;51.478;5.694;2024-02-28T06:23:09;0.90;99.90
46676;DHT22;32412;51.478;5.694;2024-02-28T06:25:35;0.90;99.90
46676;DHT22;32412;51.478;5.694;2024-02-28T06:28:01;0.90;99.90
46676;DHT22;32412;51.478;5.694;2024-02-28T06:30:32;0.90;99.90
46676;DHT22;32412;51.478;5.694;2024-02-28T06:33:02;1.00;99.90
46676;DHT22;32412;51.478;5.694;2024-02-28T06:35:28;1.00;99.90
46676;DHT22;32412;51.478;5.694;2024-02-28T06:37:54;1.00;99.90
46676;DHT22;32412;51.478;5.694;2024-02-28T06:40:20;1.10;99.90
46676;DHT22;32412;51.478;5.694;2024-02-28T06:42:46;1.10;99.90
46676;DHT22;32412;51.478;5.694;2024-02-28T06:45:12;1.10;99.90
46676;DHT22;32412;51.478;5.694;2024-02-28T06:47:37;1.10;99.90
46676;DHT22;32412;51.478;5.694;2024-02-28T06:50:04;1.10;99.90
46676;DHT22;32412;51.478;5.694;2024-02-28T06:52:30;1.20;99.90
46676;DHT22;32412;51.478;5.694;2024-02-28T06:54:56;1.30;99.90
46676;DHT22;32412;51.478;5.694;2024-02-28T06:57:22;1.30;99.90
46676;DHT22;32412;51.478;5.694;2024-02-28T06:59:48;1.30;99.90
46676;DHT22;32412;51.478;5.694;2024-02-28T07:02:14;1.40;99.90
46676;DHT22;32412;51.478;5.694;2024-02-28T07:04:41;1.40;99.90
46676;DHT22;32412;51.478;5.694;2024-02-28T07:07:08;1.40;99.90
46676;DHT22;32412;51.478;5.694;2024-02-28T07:09:34;1.50;99.90
46676;DHT22;32412;51.478;5.694;2024-02-28T07:15:47;1.60;99.90
46676;DHT22;32412;51.478;5.694;2024-02-28T07:18:12;1.60;99.90
46676;DHT22;32412;51.478;5.694;2024-02-28T07:20:38;1.60;99.90
46676;DHT22;32412;51.478;5.694;2024-02-28T07:23:04;1.70;99.90
46676;DHT22;32412;51.478;5.694;2024-02-28T07:25:30;1.70;99.90
46676;DHT22;32412;51.478;5.694;2024-02-28T07:27:58;1.70;99.90
46676;DHT22;32412;51.478;5.694;2024-02-28T07:30:28;1.70;99.90
46676;DHT22;32412;51.478;5.694;2024-02-28T07:32:54;1.80;99.90
46676;DHT22;32412;51.478;5.694;2024-02-28T07:35:20;1.80;99.90
46676;DHT22;32412;51.478;5.694;2024-02-28T07:37:46;1.80;99.90
46676;DHT22;32412;51.478;5.694;2024-02-28T07:40:12;2.00;99.90
46676;DHT22;32412;51.478;5.694;2024-02-28T07:42:38;1.90;99.90
46676;DHT22;32412;51.478;5.694;2024-02-28T07:45:04;1.90;99.90
46676;DHT22;32412;51.478;5.694;2024-02-28T07:47:30;1.90;99.90
46676;DHT22;32412;51.478;5.694;2024-02-28T07:49:56;2.00;99.90
46676;DHT22;32412;51.478;5.694;2024-02-28T07:52:22;2.00;99.90
46676;DHT22;32412;51.478;5.694;2024-02-28T07:54:48;2.10;99.90
46676;DHT22;32412;51.478;5.694;2024-02-28T07:57:14;2.20;99.90
46676;DHT22;32412;51.478;5.694;2024-02-28T07:59:41;2.20;99.90
46676;DHT22;32412;51.478;5.694;2024-02-28T08:02:08;2.30;99.90
46676;DHT22;32412;51.478;5.694;2024-02-28T08:04:34;2.30;99.90
46676;DHT22;32412;51.478;5.694;2024-02-28T08:07:00;2.40;99.90
46676;DHT22;32412;51.478;5.694;2024-02-28T08:09:26;2.50;99.90
46676;DHT22;32412;51.478;5.694;2024-02-28T08:11:51;2.60;99.90
46676;DHT22;32412;51.478;5.694;2024-02-28T08:14:17;2.60;99.90
46676;DHT22;32412;51.478;5.694;2024-02-28T08:16:43;2.70;99.90
46676;DHT22;32412;51.478;5.694;2024-02-28T08:19:09;2.70;99.90
46676;DHT22;32412;51.478;5.694;2024-02-28T08:21:34;2.80;99.90
46676;DHT22;32412;51.478;5.694;2024-02-28T08:24:00;2.90;99.90
46676;DHT22;32412;51.478;5.694;2024-02-28T08:26:30;3.00;99.90
46676;DHT22;32412;51.478;5.694;2024-02-28T08:28:55;3.00;99.90
46676;DHT22;32412;51.478;5.694;2024-02-28T08:31:21;3.10;99.90
46676;DHT22;32412;51.478;5.694;2024-02-28T08:33:47;3.20;99.90
46676;DHT22;32412;51.478;5.694;2024-02-28T08:36:12;3.30;99.90
46676;DHT22;32412;51.478;5.694;2024-02-28T08:38:38;3.40;99.90
46676;DHT22;32412;51.478;5.694;2024-02-28T08:41:05;3.50;99.90
46676;DHT22;32412;51.478;5.694;2024-02-28T08:43:30;3.70;99.90
46676;DHT22;32412;51.478;5.694;2024-02-28T08:45:56;3.70;99.90
46676;DHT22;32412;51.478;5.694;2024-02-28T08:48:21;3.80;99.90
46676;DHT22;32412;51.478;5.694;2024-02-28T08:50:48;3.90;99.90
46676;DHT22;32412;51.478;5.694;2024-02-28T08:53:14;4.00;99.90
46676;DHT22;32412;51.478;5.694;2024-02-28T08:55:40;4.20;99.90
46676;DHT22;32412;51.478;5.694;2024-02-28T08:58:05;4.30;99.90
46676;DHT22;32412;51.478;5.694;2024-02-28T09:00:31;4.50;99.90
46676;DHT22;32412;51.478;5.694;2024-02-28T09:02:56;4.80;99.90
46676;DHT22;32412;51.478;5.694;2024-02-28T09:05:23;4.80;99.90
46676;DHT22;32412;51.478;5.694;2024-02-28T09:07:49;5.00;99.90
46676;DHT22;32412;51.478;5.694;2024-02-28T09:10:17;5.10;99.90
46676;DHT22;32412;51.478;5.694;2024-02-28T09:12:49;5.30;99.90
46676;DHT22;32412;51.478;5.694;2024-02-28T09:15:14;5.40;99.90
46676;DHT22;32412;51.478;5.694;2024-02-28T09:17:40;5.50;99.90
46676;DHT22;32412;51.478;5.694;2024-02-28T09:20:06;5.50;99.90
46676;DHT22;32412;51.478;5.694;2024-02-28T09:22:33;5.50;99.90
46676;DHT22;32412;51.478;5.694;2024-02-28T09:25:00;5.50;99.90
46676;DHT22;32412;51.478;5.694;2024-02-28T09:27:28;5.50;99.90
46676;DHT22;32412;51.478;5.694;2024-02-28T09:29:53;5.60;99.90
46676;DHT22;32412;51.478;5.694;2024-02-28T09:32:19;5.90;99.90
46676;DHT22;32412;51.478;5.694;2024-02-28T09:34:44;6.30;99.90
46676;DHT22;32412;51.478;5.694;2024-02-28T09:37:10;6.60;99.90
46676;DHT22;32412;51.478;5.694;2024-02-28T09:39:38;6.80;99.90
46676;DHT22;32412;51.478;5.694;2024-02-28T09:42:06;7.20;99.90
46676;DHT22;32412;51.478;5.694;2024-02-28T09:44:32;7.50;99.90
46676;DHT22;32412;51.478;5.694;2024-02-28T09:46:58;7.80;99.90
46676;DHT22;32412;51.478;5.694;2024-02-28T09:49:26;7.90;99.90
46676;DHT22;32412;51.478;5.694;2024-02-28T09:51:52;7.80;99.90
46676;DHT22;32412;51.478;5.694;2024-02-28T09:54:21;7.60;99.90
46676;DHT22;32412;51.478;5.694;2024-02-28T09:56:48;7.40;99.90
46676;DHT22;32412;51.478;5.694;2024-02-28T09:59:15;7.40;99.90
46676;DHT22;32412;51.478;5.694;2024-02-28T10:01:43;7.60;99.90
46676;DHT22;32412;51.478;5.694;2024-02-28T10:04:12;7.60;99.90
46676;DHT22;32412;51.478;5.694;2024-02-28T10:06:41;7.70;99.90
46676;DHT22;32412;51.478;5.694;2024-02-28T10:09:07;7.80;99.90
46676;DHT22;32412;51.478;5.694;2024-02-28T10:11:33;8.00;99.90
46676;DHT22;32412;51.478;5.694;2024-02-28T10:14:01;8.30;99.90
46676;DHT22;32412;51.478;5.694;2024-02-28T10:16:27;8.50;99.90
46676;DHT22;32412;51.478;5.694;2024-02-28T10:18:53;8.60;99.90
46676;DHT22;32412;51.478;5.694;2024-02-28T10:21:19;8.60;99.90
46676;DHT22;32412;51.478;5.694;2024-02-28T10:23:45;8.90;99.90
46676;DHT22;32412;51.478;5.694;2024-02-28T10:26:14;9.10;99.90
46676;DHT22;32412;51.478;5.694;2024-02-28T10:28:43;9.60;99.90
46676;DHT22;32412;51.478;5.694;2024-02-28T10:31:10;9.60;99.90
46676;DHT22;32412;51.478;5.694;2024-02-28T10:33:36;9.60;99.90
46676;DHT22;32412;51.478;5.694;2024-02-28T10:36:05;9.60;99.90
46676;DHT22;32412;51.478;5.694;2024-02-28T10:38:32;10.10;99.90
46676;DHT22;32412;51.478;5.694;2024-02-28T10:41:04;10.60;99.90
46676;DHT22;32412;51.478;5.694;2024-02-28T10:43:30;10.70;99.90
46676;DHT22;32412;51.478;5.694;2024-02-28T10:45:59;10.80;99.90
46676;DHT22;32412;51.478;5.694;2024-02-28T10:48:25;10.50;99.90
46676;DHT22;32412;51.478;5.694;2024-02-28T10:50:51;10.20;99.90
46676;DHT22;32412;51.478;5.694;2024-02-28T10:53:42;9.70;99.90
46676;DHT22;32412;51.478;5.694;2024-02-28T10:56:10;9.60;99.90
46676;DHT22;32412;51.478;5.694;2024-02-28T10:58:48;9.30;99.90
46676;DHT22;32412;51.478;5.694;2024-02-28T11:01:16;9.20;99.90
46676;DHT22;32412;51.478;5.694;2024-02-28T11:03:42;9.20;99.90
46676;DHT22;32412;51.478;5.694;2024-02-28T11:06:21;9.00;99.90
46676;DHT22;32412;51.478;5.694;2024-02-28T11:08:51;9.00;99.90
46676;DHT22;32412;51.478;5.694;2024-02-28T11:11:22;8.80;99.90
46676;DHT22;32412;51.478;5.694;2024-02-28T11:13:58;8.80;99.90
46676;DHT22;32412;51.478;5.694;2024-02-28T11:16:32;8.80;99.90
46676;DHT22;32412;51.478;5.694;2024-02-28T11:18:58;8.90;99.90
46676;DHT22;32412;51.478;5.694;2024-02-28T11:21:28;8.90;99.90
46676;DHT22;32412;51.478;5.694;2024-02-28T11:23:58;9.00;99.90
46676;DHT22;32412;51.478;5.694;2024-02-28T11:26:24;9.00;99.90
46676;DHT22;32412;51.478;5.694;2024-02-28T11:28:50;9.00;99.90
46676;DHT22;32412;51.478;5.694;2024-02-28T11:31:16;9.10;99.90
46676;DHT22;32412;51.478;5.694;2024-02-28T11:33:44;9.30;99.90
46676;DHT22;32412;51.478;5.694;2024-02-28T11:36:11;9.40;99.90
46676;DHT22;32412;51.478;5.694;2024-02-28T11:38:39;9.50;99.90
46676;DHT22;32412;51.478;5.694;2024-02-28T11:41:05;9.50;99.90
46676;DHT22;32412;51.478;5.694;2024-02-28T11:43:31;9.60;99.90
46676;DHT22;32412;51.478;5.694;2024-02-28T11:45:58;9.50;99.90
46676;DHT22;32412;51.478;5.694;2024-02-28T11:48:25;9.30;99.90
46676;DHT22;32412;51.478;5.694;2024-02-28T11:50:53;9.10;99.90
46676;DHT22;32412;51.478;5.694;2024-02-28T11:53:19;9.20;99.90
46676;DHT22;32412;51.478;5.694;2024-02-28T11:55:48;9.10;99.90
46676;DHT22;32412;51.478;5.694;2024-02-28T11:58:14;9.20;99.90
46676;DHT22;32412;51.478;5.694;2024-02-28T12:00:47;9.20;99.90
46676;DHT22;32412;51.478;5.694;2024-02-28T12:03:13;9.20;99.90
46676;DHT22;32412;51.478;5.694;2024-02-28T12:05:38;9.30;99.90
46676;DHT22;32412;51.478;5.694;2024-02-28T12:08:06;9.30;99.90
46676;DHT22;32412;51.478;5.694;2024-02-28T12:10:32;9.50;99.90
46676;DHT22;32412;51.478;5.694;2024-02-28T12:13:01;9.40;99.90
46676;DHT22;32412;51.478;5.694;2024-02-28T12:15:29;9.50;99.90
46676;DHT22;32412;51.478;5.694;2024-02-28T12:17:55;9.60;99.90
46676;DHT22;32412;51.478;5.694;2024-02-28T12:20:20;9.60;99.90
46676;DHT22;32412;51.478;5.694;2024-02-28T12:22:46;9.50;99.90
46676;DHT22;32412;51.478;5.694;2024-02-28T12:25:12;9.50;99.90
46676;DHT22;32412;51.478;5.694;2024-02-28T12:27:37;9.50;99.90
46676;DHT22;32412;51.478;5.694;2024-02-28T12:30:03;9.30;99.90
46676;DHT22;32412;51.478;5.694;2024-02-28T12:32:32;9.20;99.90
46676;DHT22;32412;51.478;5.694;2024-02-28T12:34:58;9.20;99.90
46676;DHT22;32412;51.478;5.694;2024-02-28T12:37:23;9.20;99.90
46676;DHT22;32412;51.478;5.694;2024-02-28T12:39:49;9.20;99.90
46676;DHT22;32412;51.478;5.694;2024-02-28T12:42:17;9.30;99.90
46676;DHT22;32412;51.478;5.694;2024-02-28T12:44:43;9.30;99.90
46676;DHT22;32412;51.478;5.694;2024-02-28T12:47:12;9.40;99.90
46676;DHT22;32412;51.478;5.694;2024-02-28T12:49:37;9.40;99.90
46676;DHT22;32412;51.478;5.694;2024-02-28T12:52:03;9.50;99.90
46676;DHT22;32412;51.478;5.694;2024-02-28T12:54:30;9.40;99.90
46676;DHT22;32412;51.478;5.694;2024-02-28T12:56:55;9.40;99.90
46676;DHT22;32412;51.478;5.694;2024-02-28T12:59:21;9.30;99.90
46676;DHT22;32412;51.478;5.694;2024-02-28T13:01:47;9.20;99.90
46676;DHT22;32412;51.478;5.694;2024-02-28T13:04:16;9.20;99.90
46676;DHT22;32412;51.478;5.694;2024-02-28T13:06:41;9.20;99.90
46676;DHT22;32412;51.478;5.694;2024-02-28T13:09:07;9.20;99.90
46676;DHT22;32412;51.478;5.694;2024-02-28T13:11:38;9.30;99.90
46676;DHT22;32412;51.478;5.694;2024-02-28T13:14:04;9.20;99.90
46676;DHT22;32412;51.478;5.694;2024-02-28T13:16:30;9.00;99.90
46676;DHT22;32412;51.478;5.694;2024-02-28T13:18:55;9.00;99.90
46676;DHT22;32412;51.478;5.694;2024-02-28T13:21:21;9.00;99.90
46676;DHT22;32412;51.478;5.694;2024-02-28T13:23:47;9.00;99.90
46676;DHT22;32412;51.478;5.694;2024-02-28T13:26:13;9.00;99.90
46676;DHT22;32412;51.478;5.694;2024-02-28T13:28:45;9.10;99.90
46676;DHT22;32412;51.478;5.694;2024-02-28T13:31:13;9.40;99.90
46676;DHT22;32412;51.478;5.694;2024-02-28T13:33:39;9.50;99.90
46676;DHT22;32412;51.478;5.694;2024-02-28T13:36:07;9.70;99.90
46676;DHT22;32412;51.478;5.694;2024-02-28T13:38:33;9.80;99.90
46676;DHT22;32412;51.478;5.694;2024-02-28T13:41:01;9.90;99.90
46676;DHT22;32412;51.478;5.694;2024-02-28T13:43:27;9.90;99.90
46676;DHT22;32412;51.478;5.694;2024-02-28T13:45:53;9.90;99.90
46676;DHT22;32412;51.478;5.694;2024-02-28T13:48:22;10.00;99.90
46676;DHT22;32412;51.478;5.694;2024-02-28T13:50:50;10.20;99.90
46676;DHT22;32412;51.478;5.694;2024-02-28T13:53:15;10.40;99.90
46676;DHT22;32412;51.478;5.694;2024-02-28T13:55:45;10.40;99.90
46676;DHT22;32412;51.478;5.694;2024-02-28T13:58:12;10.30;99.90
46676;DHT22;32412;51.478;5.694;2024-02-28T14:00:38;10.20;99.90
46676;DHT22;32412;51.478;5.694;2024-02-28T14:03:05;10.00;99.90
46676;DHT22;32412;51.478;5.694;2024-02-28T14:05:31;10.00;99.90
46676;DHT22;32412;51.478;5.694;2024-02-28T14:07:57;10.00;99.90
46676;DHT22;32412;51.478;5.694;2024-02-28T14:10:24;9.90;99.90
46676;DHT22;32412;51.478;5.694;2024-02-28T14:12:50;9.80;99.90
46676;DHT22;32412;51.478;5.694;2024-02-28T14:15:20;9.70;99.90
46676;DHT22;32412;51.478;5.694;2024-02-28T14:17:47;9.60;99.90
46676;DHT22;32412;51.478;5.694;2024-02-28T14:20:13;9.50;99.90
46676;DHT22;32412;51.478;5.694;2024-02-28T14:22:40;9.50;99.90
46676;DHT22;32412;51.478;5.694;2024-02-28T14:25:17;9.40;99.90
46676;DHT22;32412;51.478;5.694;2024-02-28T14:27:47;9.50;99.90
46676;DHT22;32412;51.478;5.694;2024-02-28T14:30:14;9.60;99.90
46676;DHT22;32412;51.478;5.694;2024-02-28T14:32:41;9.60;99.90
46676;DHT22;32412;51.478;5.694;2024-02-28T14:35:08;9.70;99.90
46676;DHT22;32412;51.478;5.694;2024-02-28T14:37:35;9.80;99.90
46676;DHT22;32412;51.478;5.694;2024-02-28T14:40:01;9.90;99.90
46676;DHT22;32412;51.478;5.694;2024-02-28T14:42:29;9.90;99.90
46676;DHT22;32412;51.478;5.694;2024-02-28T14:44:55;9.90;99.90
46676;DHT22;32412;51.478;5.694;2024-02-28T14:47:21;10.00;99.90
46676;DHT22;32412;51.478;5.694;2024-02-28T14:49:46;9.90;99.90
46676;DHT22;32412;51.478;5.694;2024-02-28T14:52:12;10.00;99.90
46676;DHT22;32412;51.478;5.694;2024-02-28T14:54:39;10.00;99.90
46676;DHT22;32412;51.478;5.694;2024-02-28T14:57:06;10.10;99.90
46676;DHT22;32412;51.478;5.694;2024-02-28T14:59:32;10.10;99.90
46676;DHT22;32412;51.478;5.694;2024-02-28T15:01:58;10.00;99.90
46676;DHT22;32412;51.478;5.694;2024-02-28T15:04:25;9.90;99.90
46676;DHT22;32412;51.478;5.694;2024-02-28T15:06:50;9.90;99.90
46676;DHT22;32412;51.478;5.694;2024-02-28T15:09:18;9.80;99.90
46676;DHT22;32412;51.478;5.694;2024-02-28T15:11:47;9.80;99.90
46676;DHT22;32412;51.478;5.694;2024-02-28T15:14:13;9.90;99.90
46676;DHT22;32412;51.478;5.694;2024-02-28T15:16:40;10.00;99.90
46676;DHT22;32412;51.478;5.694;2024-02-28T15:19:05;10.10;99.90
46676;DHT22;32412;51.478;5.694;2024-02-28T15:21:31;10.20;99.90
46676;DHT22;32412;51.478;5.694;2024-02-28T15:23:57;10.30;99.90
46676;DHT22;32412;51.478;5.694;2024-02-28T15:26:23;10.30;99.90
46676;DHT22;32412;51.478;5.694;2024-02-28T15:28:49;10.30;99.90
46676;DHT22;32412;51.478;5.694;2024-02-28T15:31:14;10.30;99.90
46676;DHT22;32412;51.478;5.694;2024-02-28T15:33:40;10.30;99.90
46676;DHT22;32412;51.478;5.694;2024-02-28T15:36:06;10.40;99.90
46676;DHT22;32412;51.478;5.694;2024-02-28T15:38:32;10.40;99.90
46676;DHT22;32412;51.478;5.694;2024-02-28T15:41:02;10.40;99.90
46676;DHT22;32412;51.478;5.694;2024-02-28T15:43:29;10.30;99.90